Latest Coastal Weather Observations for Yeppoon

IDQ60701

Issued at 4:45 pm EST Saturday 2 August 2014 (issued every 10 minutes, with the page automatically refreshed every 10 minutes)

About coastal observations | Map of coastal stations | Coastal observations for QLD | Marine services | Other Formats
Station Details ID: 033294 Name: YEPPOON THE ESPLANADE Lat: -23.14 Lon: 150.75 Height: 5.5 m
Data from the previous 72 hours. | See also: Recent months at Yeppoon
Date/Time
EST
Temp

°C
Wind Pressure Rain
since 9am
mm
Weather Cloud Vis
km
Sea
Height
m
Swell
Dir
 
Speed
knots
Gust
knots
hPa Trend Height
m
Period
s
Dir
02/04:30pm 19.9 E 7 9 1019.8 - 0.0 - - - - - - -
02/04:00pm 20.1 E 8 11 1019.5 - 0.0 - - - - - - -
02/03:30pm 21.0 E 9 12 1019.2 - 0.0 - - - - - - -
02/03:00pm 21.6 E 12 15 1019.1 - 0.0 - - - - - - -
02/02:30pm 22.6 ESE 9 13 1019.1 - 0.0 - - - - - - -
02/02:00pm 22.6 ESE 10 14 1019.4 - 0.0 - - - - - - -
02/01:30pm 22.5 ESE 10 14 1019.6 - 0.0 - - - - - - -
02/01:00pm 21.8 ESE 10 14 1019.8 - 0.0 - - - - - - -
02/12:30pm 21.8 ESE 9 13 1020.3 - 0.0 - - - - - - -
02/12:00pm 21.5 E 10 13 1020.7 - 0.0 - - - - - - -
02/11:30am 22.0 ESE 7 11 1021.1 - 0.0 - - - - - - -
02/11:00am 21.4 S 8 12 1021.4 - 0.0 - - - - - - -
02/10:30am 20.7 S 9 14 1021.7 - 0.0 - - - - - - -
02/10:00am 20.1 SSE 8 11 1021.8 - 0.0 - - - - - - -
02/09:30am 19.7 SSE 9 12 1021.9 - 0.0 - - - - - - -
02/09:00am 18.9 S 7 10 1021.6 - 0.2 - - - - - - -
02/08:30am 18.2 SSW 5 7 1021.4 - 0.2 - - - - - - -
02/08:00am 17.0 WSW 4 5 1021.2 - 0.2 - - - - - - -
02/07:30am 16.0 SW 5 6 1020.8 - 0.2 - - - - - - -
02/07:00am 15.3 W 5 7 1020.3 - 0.2 - - - - - - -
02/06:30am 15.6 WSW 5 6 1019.7 - 0.2 - - - - - - -
02/06:00am 15.8 W 5 7 1019.3 - 0.0 - - - - - - -
02/05:30am 16.7 SSW 5 7 1018.8 - 0.0 - - - - - - -
02/05:00am 16.9 SW 6 7 1018.3 - 0.0 - - - - - - -
02/04:30am 17.4 WSW 6 10 1017.8 - 0.0 - - - - - - -
02/04:00am 17.6 WSW 9 13 1017.4 - 0.0 - - - - - - -
02/03:30am 17.4 SW 7 10 1017.4 - 0.0 - - - - - - -
02/03:00am 16.5 W 5 9 1016.5 - 0.0 - - - - - - -
02/02:30am 16.2 W 5 6 1016.8 - 0.0 - - - - - - -
02/02:00am 16.2 W 5 7 1016.9 - 0.0 - - - - - - -
02/01:30am 15.8 W 4 5 1017.3 - 0.0 - - - - - - -
02/01:00am 15.7 WNW 5 7 1017.4 - 0.0 - - - - - - -
02/12:30am 15.4 W 7 9 1017.6 - 0.0 - - - - - - -
02/12:00am 15.4 WNW 5 7 1017.8 - 0.0 - - - - - - -
 
Date/Time
EST
Temp

°C
Wind Pressure Rain
since 9am
mm
Weather Cloud Vis
km
Sea
Height
m
Swell
Dir
 
Speed
knots
Gust
knots
hPa Trend Height
m
Period
s
Dir
01/11:30pm 15.9 W 5 8 1017.9 - 0.0 - - - - - - -
01/11:00pm 16.1 W 5 6 1017.9 - 0.0 - - - - - - -
01/10:30pm 16.6 WNW 5 6 1017.9 - 0.0 - - - - - - -
01/10:00pm 17.7 N 3 4 1017.8 - 0.0 - - - - - - -
01/09:30pm 19.0 N 4 6 1017.7 - 0.0 - - - - - - -
01/09:00pm 19.0 N 5 7 1017.5 - 0.0 - - - - - - -
01/08:30pm 19.4 N 3 5 1017.4 - 0.0 - - - - - - -
01/08:00pm 20.1 N 3 5 1017.0 - 0.0 - - - - - - -
01/07:30pm 20.0 N 1 7 1016.9 - 0.0 - - - - - - -
01/07:00pm 20.1 N 4 8 1016.4 - 0.0 - - - - - - -
01/06:30pm 20.7 N 7 8 1015.9 - 0.0 - - - - - - -
01/06:00pm 20.9 N 9 11 1015.4 - 0.0 - - - - - - -
01/05:30pm 20.8 N 16 18 1014.9 - 0.0 - - - - - - -
01/05:00pm 21.0 N 15 18 1014.6 - 0.0 - - - - - - -
01/04:30pm 21.1 N 17 19 1014.4 - 0.0 - - - - - - -
01/04:00pm 21.4 NNE 16 18 1014.5 - 0.0 - - - - - - -
01/03:30pm 21.5 NNE 13 15 1014.7 - 0.0 - - - - - - -
01/03:00pm 22.0 NNE 13 15 1014.8 - 0.0 - - - - - - -
01/02:30pm 22.2 N 12 14 1015.2 - 0.0 - - - - - - -
01/02:00pm 21.4 NNE 11 12 1015.5 - 0.0 - - - - - - -
01/01:30pm 22.3 NNE 7 9 1015.9 - 0.0 - - - - - - -
01/01:00pm 21.9 NNE 8 9 1016.1 - 0.0 - - - - - - -
01/12:30pm 23.1 NE 6 8 1016.6 - 0.0 - - - - - - -
01/12:00pm 22.4 NE 5 7 1017.3 - 0.0 - - - - - - -
01/11:30am 22.4 NE 5 6 1017.7 - 0.0 - - - - - - -
01/11:00am 22.7 NE 4 6 1018.2 - 0.0 - - - - - - -
01/10:30am 22.9 ENE 5 6 1018.5 - 0.0 - - - - - - -
01/10:00am 21.5 NE 5 6 1018.8 - 0.0 - - - - - - -
01/09:30am 20.7 N 4 5 1018.9 - 0.0 - - - - - - -
01/09:00am 19.1 NW 2 3 1018.9 - 0.0 - - - - - - -
01/08:30am 17.8 W 4 5 1018.9 - 0.0 - - - - - - -
01/08:00am 16.4 W 5 6 1018.7 - 0.0 - - - - - - -
01/07:30am 15.6 W 5 6 1018.3 - 0.0 - - - - - - -
01/07:00am 15.4 W 5 5 1018.1 - 0.0 - - - - - - -
01/06:30am 15.2 W 5 6 1017.9 - 0.0 - - - - - - -
01/06:00am 15.4 W 5 6 1017.7 - 0.0 - - - - - - -
01/05:30am 15.6 W 6 7 1017.5 - 0.0 - - - - - - -
01/05:00am 16.0 W 5 6 1017.4 - 0.0 - - - - - - -
01/04:30am 16.6 W 4 5 1017.1 - 0.0 - - - - - - -
01/04:00am 16.8 W 5 6 1017.1 - 0.0 - - - - - - -
01/03:30am 16.9 W 4 5 1017.3 - 0.0 - - - - - - -
01/03:00am 17.1 W 4 5 1017.4 - 0.0 - - - - - - -
01/02:30am 17.0 W 3 5 1017.7 - 0.0 - - - - - - -
01/02:00am 17.0 SW 3 4 1017.9 - 0.0 - - - - - - -
01/01:30am 17.3 WSW 1 4 1017.9 - 0.0 - - - - - - -
01/01:00am 17.5 CALM 0 0 1018.1 - 0.0 - - - - - - -
01/12:30am 17.7 CALM 0 0 1018.3 - 0.0 - - - - - - -
01/12:00am 17.5 WSW 2 3 1018.3 - 0.0 - - - - - - -
 
Date/Time
EST
Temp

°C
Wind Pressure Rain
since 9am
mm
Weather Cloud Vis
km
Sea
Height
m
Swell
Dir
 
Speed
knots
Gust
knots
hPa Trend Height
m
Period
s
Dir
31/11:30pm 17.3 SW 4 5 1018.2 - 0.0 - - - - - - -
31/11:00pm 17.5 CALM 0 0 1018.3 - 0.0 - - - - - - -
31/10:30pm 17.7 CALM 0 0 1018.6 - 0.0 - - - - - - -
31/10:00pm 17.7 CALM 0 0 1018.7 - 0.0 - - - - - - -
31/09:30pm 17.7 CALM 0 0 1018.7 - 0.0 - - - - - - -
31/09:00pm 17.4 NNE 1 3 1018.7 - 0.0 - - - - - - -
31/08:30pm 17.3 CALM 0 0 1018.6 - 0.0 - - - - - - -
31/08:00pm 17.3 CALM 0 3 1018.5 - 0.0 - - - - - - -
31/07:30pm 17.9 CALM 0 0 1018.3 - 0.0 - - - - - - -
31/07:00pm 18.7 N 3 4 1018.0 - 0.0 - - - - - - -
31/06:30pm 19.2 N 4 5 1017.8 - 0.0 - - - - - - -
31/06:00pm 19.6 N 5 7 1017.6 - 0.0 - - - - - - -
31/05:30pm 19.8 NNE 5 6 1017.6 - 0.0 - - - - - - -
31/05:00pm 20.0 NE 5 6 1017.6 - 0.0 - - - - - - -
31/04:30pm 20.4 E 4 5 1017.4 - 0.0 - - - - - - -
31/04:00pm 20.5 ENE 5 7 1017.4 - 0.0 - - - - - - -
31/03:30pm 20.5 ENE 6 9 1017.4 - 0.0 - - - - - - -
31/03:00pm 20.8 ENE 7 9 1017.4 - 0.0 - - - - - - -
31/02:30pm 21.3 NE 5 6 1017.5 - 0.0 - - - - - - -
31/02:00pm 21.6 ENE 5 7 1017.8 - 0.0 - - - - - - -
31/01:30pm 21.9 E 5 7 1018.1 - 0.0 - - - - - - -
31/01:00pm 21.7 E 7 9 1018.6 - 0.0 - - - - - - -
31/12:30pm 22.6 E 6 7 1019.1 - 0.0 - - - - - - -
31/12:00pm 22.6 E 6 8 1019.7 - 0.0 - - - - - - -
31/11:30am 22.0 E 8 9 1020.2 - 0.0 - - - - - - -
31/11:00am 21.8 E 7 9 1020.8 - 0.0 - - - - - - -
31/10:30am 21.2 E 8 10 1021.2 - 0.0 - - - - - - -
31/10:00am 21.2 E 7 9 1021.4 - 0.0 - - - - - - -
31/09:30am 20.2 S 4 6 1021.4 - 0.0 - - - - - - -
31/09:00am 18.8 SSW 4 6 1021.4 - 0.0 - - - - - - -
31/08:30am 17.5 SSW 4 7 1021.5 - 0.0 - - - - - - -
31/08:00am 16.5 SW 4 6 1021.3 - 0.0 - - - - - - -
31/07:30am 15.5 SW 5 6 1021.0 - 0.0 - - - - - - -
31/07:00am 14.9 WSW 3 5 1020.8 - 0.0 - - - - - - -
31/06:30am 14.4 W 5 7 1020.7 - 0.0 - - - - - - -
31/06:00am 13.9 W 5 7 1020.3 - 0.0 - - - - - - -
31/05:30am 13.7 W 6 8 1020.1 - 0.0 - - - - - - -
31/05:00am 13.4 W 5 6 1019.9 - 0.0 - - - - - - -
31/04:30am 13.7 W 6 7 1019.9 - 0.0 - - - - - - -
31/04:00am 13.7 W 4 5 1019.9 - 0.0 - - - - - - -
31/03:30am 13.8 W 4 5 1019.9 - 0.0 - - - - - - -
31/03:00am 13.8 W 4 6 1020.0 - 0.0 - - - - - - -
31/02:30am 13.3 W 3 5 1020.1 - 0.0 - - - - - - -
31/02:00am 14.4 W 4 5 1020.3 - 0.0 - - - - - - -
31/01:30am 14.4 W 5 6 1020.7 - 0.0 - - - - - - -
31/01:00am 14.1 W 6 8 1020.8 - 0.0 - - - - - - -
31/12:30am 13.7 W 7 7 1020.9 - 0.0 - - - - - - -
31/12:00am 13.4 W 5 6 1020.9 - 0.0 - - - - - - -
 
Date/Time
EST
Temp

°C
Wind Pressure Rain
since 9am
mm
Weather Cloud Vis
km
Sea
Height
m
Swell
Dir
 
Speed
knots
Gust
knots
hPa Trend Height
m
Period
s
Dir
30/11:30pm 13.9 W 5 6 1021.1 - 0.0 - - - - - - -
30/11:00pm 14.1 W 6 7 1021.2 - 0.0 - - - - - - -
30/10:30pm 13.9 W 5 6 1021.2 - 0.0 - - - - - - -
30/10:00pm 14.5 W 4 6 1021.3 - 0.0 - - - - - - -
30/09:30pm 14.6 W 4 5 1021.5 - 0.0 - - - - - - -
30/09:00pm 15.0 W 3 4 1021.5 - 0.0 - - - - - - -
30/08:30pm 15.4 WSW 3 5 1021.3 - 0.0 - - - - - - -
30/08:00pm 15.9 SW 3 4 1021.2 - 0.0 - - - - - - -
30/07:30pm 16.1 SSW 3 5 1021.0 - 0.0 - - - - - - -
30/07:00pm 17.1 ESE 2 4 1020.8 - 0.0 - - - - - - -
30/06:30pm 18.9 ENE 3 5 1020.4 - 0.0 - - - - - - -
30/06:00pm 19.2 ENE 5 6 1020.1 - 0.0 - - - - - - -
30/05:30pm 19.4 ENE 5 6 1019.9 - 0.0 - - - - - - -
30/05:00pm 19.8 ENE 6 9 1019.8 - 0.0 - - - - - - -

Other Formats:

Comma delimited format used in spreadsheet applications
http://www.bom.gov.au/fwo/IDQ60701/IDQ60701.94373.axf

JavaScript Object Notation format (JSON) in row-major order
http://www.bom.gov.au/fwo/IDQ60701/IDQ60701.94373.json